createdAt,value
2022-12-06T00:00:04.927Z,59.76
2022-12-06T00:02:58.608Z,59.57
2022-12-06T00:05:46.326Z,59.29
2022-12-06T00:08:32.565Z,59.67
2022-12-06T00:11:22.002Z,59.55
2022-12-06T00:14:08.388Z,59.72
2022-12-06T00:16:54.508Z,59.46
2022-12-06T00:19:40.460Z,59.55
2022-12-06T00:22:26.491Z,59.29
2022-12-06T00:25:12.380Z,59.48
2022-12-06T00:27:58.387Z,59.69
2022-12-06T00:30:44.249Z,59.71
2022-12-06T00:33:30.328Z,59.87
2022-12-06T00:36:18.973Z,59.74
2022-12-06T00:39:07.609Z,59.89
2022-12-06T00:41:56.038Z,59.43
2022-12-06T00:44:41.908Z,59.67
2022-12-06T00:47:27.846Z,59.88
2022-12-06T00:50:13.662Z,60.01
2022-12-06T00:52:59.463Z,59.89
2022-12-06T00:55:46.381Z,59.83
2022-12-06T00:58:32.434Z,59.75
2022-12-06T01:01:21.575Z,60.07
2022-12-06T01:04:09.431Z,59.99
2022-12-06T01:06:55.506Z,59.86
2022-12-06T01:09:42.558Z,60.10
2022-12-06T01:12:28.716Z,59.78
2022-12-06T01:15:14.900Z,59.80
2022-12-06T01:18:00.982Z,60.28
2022-12-06T01:20:47.275Z,59.75
2022-12-06T01:23:33.267Z,60.08
2022-12-06T01:26:23.044Z,60.00
2022-12-06T01:29:10.067Z,59.97
2022-12-06T01:31:56.415Z,59.86
2022-12-06T01:34:43.577Z,60.16
2022-12-06T01:37:29.820Z,60.26
2022-12-06T01:40:15.880Z,60.16
2022-12-06T01:43:01.657Z,60.07
2022-12-06T01:45:47.648Z,60.16
2022-12-06T01:48:34.020Z,59.78
2022-12-06T01:51:20.226Z,60.39
2022-12-06T01:54:09.124Z,60.26
2022-12-06T01:56:56.406Z,60.43
2022-12-06T01:59:42.562Z,60.13
2022-12-06T02:02:28.717Z,60.35
2022-12-06T02:05:15.950Z,60.19
2022-12-06T02:08:01.792Z,60.17
2022-12-06T02:10:48.077Z,60.56
2022-12-06T02:13:34.676Z,60.40
2022-12-06T02:16:36.160Z,60.22
2022-12-06T02:19:44.042Z,60.01
2022-12-06T02:22:40.687Z,59.97
2022-12-06T02:25:53.537Z,60.38
2022-12-06T02:29:08.851Z,60.26
2022-12-06T02:32:13.469Z,60.43
2022-12-06T02:35:19.668Z,60.44
2022-12-06T02:38:13.144Z,60.18
2022-12-06T02:41:01.914Z,60.21
2022-12-06T02:43:53.020Z,59.98
2022-12-06T02:46:41.497Z,60.35
2022-12-06T02:49:31.856Z,60.14
2022-12-06T02:52:19.618Z,60.27
2022-12-06T02:55:08.429Z,60.25
2022-12-06T02:57:56.989Z,60.32
2022-12-06T03:00:50.472Z,60.61
2022-12-06T03:03:45.706Z,60.59
2022-12-06T03:07:02.530Z,60.62
2022-12-06T03:10:19.637Z,60.16
2022-12-06T03:13:19.029Z,60.32
2022-12-06T03:16:19.741Z,60.12
2022-12-06T03:19:09.966Z,60.26
2022-12-06T03:22:04.606Z,60.45
2022-12-06T03:24:51.359Z,60.37
2022-12-06T03:27:37.644Z,60.67
2022-12-06T03:30:23.978Z,60.40
2022-12-06T03:33:10.488Z,60.26
2022-12-06T03:35:57.843Z,60.43
2022-12-06T03:39:11.149Z,60.60
2022-12-06T03:41:58.806Z,60.65
2022-12-06T03:44:45.575Z,60.37
2022-12-06T03:47:40.627Z,60.56
2022-12-06T03:50:31.469Z,60.80
2022-12-06T03:53:18.775Z,60.53
2022-12-06T03:56:04.812Z,60.52
2022-12-06T03:58:50.965Z,60.39
2022-12-06T04:01:38.330Z,60.38
2022-12-06T04:04:25.070Z,60.52
2022-12-06T04:07:12.105Z,60.53
2022-12-06T04:10:03.753Z,60.41
2022-12-06T04:13:13.082Z,60.67
2022-12-06T04:16:01.919Z,60.62
2022-12-06T04:18:48.075Z,60.41
2022-12-06T04:21:33.894Z,60.68
2022-12-06T04:24:19.868Z,60.23
2022-12-06T04:27:24.239Z,60.73
2022-12-06T04:30:29.562Z,60.46
2022-12-06T04:33:34.235Z,60.58
2022-12-06T04:36:38.914Z,60.53
2022-12-06T04:39:25.761Z,60.27
2022-12-06T04:42:29.962Z,60.61
2022-12-06T04:45:16.325Z,60.47
2022-12-06T04:48:02.524Z,60.44
2022-12-06T04:50:51.645Z,60.26
2022-12-06T04:53:37.676Z,60.54
2022-12-06T04:56:23.663Z,60.14
2022-12-06T04:59:09.630Z,60.56
2022-12-06T05:01:56.293Z,60.37
2022-12-06T05:04:42.214Z,60.47
2022-12-06T05:07:28.361Z,60.48
2022-12-06T05:10:14.543Z,60.36
2022-12-06T05:13:01.522Z,60.52
2022-12-06T05:15:59.255Z,60.50
2022-12-06T05:18:45.105Z,60.62
2022-12-06T05:21:31.414Z,60.67
2022-12-06T05:24:17.417Z,60.59
2022-12-06T05:27:03.416Z,60.86
2022-12-06T05:29:49.649Z,60.50
2022-12-06T05:32:35.770Z,60.32
2022-12-06T05:35:21.838Z,60.39
2022-12-06T05:38:07.759Z,60.53
2022-12-06T05:40:53.703Z,60.42
2022-12-06T05:43:39.608Z,60.42
2022-12-06T05:46:26.033Z,60.35
2022-12-06T05:49:12.051Z,60.80
2022-12-06T05:52:03.665Z,60.63
2022-12-06T05:54:50.090Z,60.40
2022-12-06T05:57:36.027Z,60.48
2022-12-06T06:00:22.240Z,60.80
2022-12-06T06:03:08.438Z,60.86
2022-12-06T06:05:58.613Z,60.75
2022-12-06T06:08:44.732Z,60.84
2022-12-06T06:11:30.637Z,60.54
2022-12-06T06:14:16.765Z,60.41
2022-12-06T06:17:02.760Z,60.62
2022-12-06T06:19:51.382Z,60.51
2022-12-06T06:22:38.694Z,60.74
2022-12-06T06:25:25.047Z,60.87
2022-12-06T06:28:11.065Z,60.84
2022-12-06T06:30:57.048Z,60.28
2022-12-06T06:33:43.048Z,60.44
2022-12-06T06:36:28.943Z,60.74
2022-12-06T06:39:14.892Z,60.93
2022-12-06T06:42:01.145Z,60.50
2022-12-06T06:44:46.987Z,60.47
2022-12-06T06:47:33.070Z,61.00
2022-12-06T06:50:19.188Z,60.47
2022-12-06T06:53:05.148Z,60.64
2022-12-06T06:55:51.107Z,60.96
2022-12-06T06:58:37.527Z,60.54
2022-12-06T07:01:24.895Z,60.78
2022-12-06T07:04:10.968Z,60.92
2022-12-06T07:06:57.847Z,60.76
2022-12-06T07:09:44.023Z,60.49
2022-12-06T07:12:30.260Z,60.77
2022-12-06T07:15:16.060Z,60.75
2022-12-06T07:18:02.134Z,60.90
2022-12-06T07:20:48.726Z,60.44
2022-12-06T07:23:35.770Z,60.76
2022-12-06T07:26:23.559Z,60.34
2022-12-06T07:29:09.485Z,60.65
2022-12-06T07:31:55.277Z,60.55
2022-12-06T07:34:41.318Z,60.77
2022-12-06T07:37:27.079Z,61.17
2022-12-06T07:40:14.577Z,60.40
2022-12-06T07:43:19.118Z,60.67
2022-12-06T07:46:11.541Z,60.46
2022-12-06T07:48:57.632Z,60.41
2022-12-06T07:51:45.037Z,61.24
2022-12-06T07:54:31.022Z,60.79
2022-12-06T07:57:16.976Z,61.30
2022-12-06T08:00:04.551Z,60.99
2022-12-06T08:02:57.972Z,61.03
2022-12-06T08:05:43.921Z,60.85
2022-12-06T08:08:31.675Z,60.57
2022-12-06T08:11:17.845Z,60.74
2022-12-06T08:14:05.000Z,60.87
2022-12-06T08:16:52.138Z,60.83
2022-12-06T08:19:38.022Z,60.88
2022-12-06T08:22:23.930Z,60.32
2022-12-06T08:25:10.057Z,60.56
2022-12-06T08:27:56.174Z,60.40
2022-12-06T08:30:42.149Z,61.07
2022-12-06T08:33:28.640Z,60.67
2022-12-06T08:36:17.433Z,61.04
2022-12-06T08:39:03.717Z,61.09
2022-12-06T08:41:55.445Z,60.73
2022-12-06T08:44:41.681Z,60.85
2022-12-06T08:47:27.503Z,60.73
2022-12-06T08:50:13.400Z,61.10
2022-12-06T08:52:59.301Z,61.42
2022-12-06T08:56:00.367Z,61.04
2022-12-06T08:58:48.933Z,61.01
2022-12-06T09:01:38.015Z,61.41
2022-12-06T09:04:24.603Z,61.11
2022-12-06T09:07:12.043Z,61.27
2022-12-06T09:09:58.351Z,61.06
2022-12-06T09:12:44.533Z,61.10
2022-12-06T09:15:30.517Z,60.85
2022-12-06T09:18:16.415Z,61.08
2022-12-06T09:21:10.385Z,60.85
2022-12-06T09:23:57.417Z,60.53
2022-12-06T09:26:44.213Z,60.91
2022-12-06T09:29:30.192Z,60.89
2022-12-06T09:32:15.874Z,60.51
2022-12-06T09:35:02.007Z,60.82
2022-12-06T09:37:48.460Z,60.80
2022-12-06T09:41:04.125Z,60.82
2022-12-06T09:44:24.453Z,60.87
2022-12-06T09:47:34.426Z,60.62
2022-12-06T09:50:26.374Z,60.29
2022-12-06T09:53:51.416Z,60.70
2022-12-06T09:56:44.111Z,60.69
2022-12-06T09:59:53.348Z,60.72
2022-12-06T10:03:02.412Z,60.75
2022-12-06T10:06:00.740Z,60.46
2022-12-06T10:09:08.548Z,60.72
2022-12-06T10:12:03.150Z,60.38
2022-12-06T10:15:07.209Z,60.47
2022-12-06T10:18:03.882Z,60.78
2022-12-06T10:20:59.454Z,60.31
2022-12-06T10:24:00.198Z,60.40
2022-12-06T10:27:31.443Z,60.33
2022-12-06T10:30:17.981Z,60.41
2022-12-06T10:33:22.975Z,60.22
2022-12-06T10:36:10.395Z,60.13
2022-12-06T10:39:03.845Z,59.86
2022-12-06T10:42:02.880Z,60.21
2022-12-06T10:44:56.098Z,60.14
2022-12-06T10:47:43.984Z,60.04
2022-12-06T10:50:35.201Z,60.19
2022-12-06T10:53:23.928Z,60.08
2022-12-06T10:56:19.963Z,60.56
2022-12-06T10:59:28.729Z,59.76
2022-12-06T11:02:28.813Z,60.29
2022-12-06T11:05:22.310Z,59.99
2022-12-06T11:08:43.805Z,59.87
2022-12-06T11:11:33.791Z,60.19
2022-12-06T11:14:27.397Z,59.99
2022-12-06T11:17:19.793Z,59.78
2022-12-06T11:20:25.967Z,60.12
2022-12-06T11:23:17.679Z,59.99
2022-12-06T11:26:22.717Z,60.00
2022-12-06T11:29:14.372Z,59.45
2022-12-06T11:32:03.400Z,59.86
2022-12-06T11:34:52.053Z,59.81
2022-12-06T11:37:44.167Z,59.91
2022-12-06T11:40:36.648Z,59.92
2022-12-06T11:43:26.829Z,59.42
2022-12-06T11:46:14.264Z,59.43
2022-12-06T11:49:11.355Z,59.75
2022-12-06T11:51:59.982Z,59.81
2022-12-06T11:55:08.029Z,59.95
2022-12-06T11:58:26.811Z,59.47
2022-12-06T12:01:16.362Z,59.31
2022-12-06T12:04:23.671Z,59.44
2022-12-06T12:07:09.411Z,59.54
2022-12-06T12:10:04.721Z,59.41
2022-12-06T12:13:09.310Z,59.49
2022-12-06T12:15:58.340Z,59.52
2022-12-06T12:18:59.526Z,59.57
2022-12-06T12:21:49.624Z,59.67
2022-12-06T12:27:58.906Z,59.53
2022-12-06T12:30:56.634Z,59.71
2022-12-06T12:33:42.763Z,59.43
2022-12-06T12:36:29.303Z,59.53
2022-12-06T12:39:27.639Z,59.49
2022-12-06T12:42:31.545Z,59.67
2022-12-06T12:45:19.735Z,59.40
2022-12-06T12:48:25.012Z,59.33
2022-12-06T12:51:20.612Z,59.52
2022-12-06T12:54:23.894Z,59.51
2022-12-06T12:57:12.379Z,59.85
2022-12-06T12:59:58.812Z,59.12
2022-12-06T13:02:47.941Z,59.62
2022-12-06T13:05:40.590Z,59.36
2022-12-06T13:08:34.073Z,59.28
2022-12-06T13:11:20.971Z,59.46
2022-12-06T13:14:07.152Z,59.48
2022-12-06T13:16:56.076Z,59.08
2022-12-06T13:19:51.654Z,59.27
2022-12-06T13:22:45.306Z,59.30
2022-12-06T13:25:31.836Z,59.54
2022-12-06T13:28:22.625Z,59.28
2022-12-06T13:31:16.148Z,59.59
2022-12-06T13:34:54.762Z,59.23
2022-12-06T13:37:58.334Z,59.15
2022-12-06T13:40:54.126Z,59.56
2022-12-06T13:43:49.786Z,59.16
2022-12-06T13:46:36.026Z,59.49
2022-12-06T13:49:25.826Z,59.48
2022-12-06T13:52:40.943Z,59.58
2022-12-06T13:55:28.458Z,59.43
2022-12-06T13:58:18.597Z,59.47
2022-12-06T14:01:43.794Z,59.24
2022-12-06T14:07:33.650Z,59.26
2022-12-06T14:10:19.770Z,59.02
2022-12-06T14:13:05.984Z,59.25
2022-12-06T14:15:52.619Z,59.26
2022-12-06T14:18:40.815Z,59.14
2022-12-06T14:21:30.867Z,58.99
2022-12-06T14:24:40.526Z,59.55
2022-12-06T14:27:29.257Z,59.40
2022-12-06T14:30:26.489Z,59.05
2022-12-06T14:33:19.610Z,58.93
2022-12-06T14:36:06.308Z,59.44
2022-12-06T14:39:16.267Z,59.30
2022-12-06T14:42:22.730Z,58.92
2022-12-06T14:45:16.141Z,59.23
2022-12-06T14:48:04.086Z,58.93
2022-12-06T14:51:01.347Z,59.02
2022-12-06T14:53:47.562Z,59.01
2022-12-06T14:56:35.803Z,58.94
2022-12-06T14:59:46.135Z,58.93
2022-12-06T15:02:31.407Z,58.82
2022-12-06T15:05:38.934Z,59.45
2022-12-06T15:08:28.370Z,58.94
2022-12-06T15:11:34.394Z,58.79
2022-12-06T15:14:25.203Z,59.17
2022-12-06T15:17:11.437Z,58.94
2022-12-06T15:19:57.568Z,59.14
2022-12-06T15:22:46.398Z,59.13
2022-12-06T15:25:32.458Z,59.07
2022-12-06T15:28:20.005Z,58.94
2022-12-06T15:31:12.081Z,59.20
2022-12-06T15:33:58.349Z,59.07
2022-12-06T15:36:44.139Z,59.03
2022-12-06T15:39:33.191Z,58.99
2022-12-06T15:42:20.938Z,59.11
2022-12-06T15:45:14.591Z,58.81
2022-12-06T15:48:00.526Z,59.15
2022-12-06T15:50:47.565Z,58.97
2022-12-06T15:53:33.881Z,58.85
2022-12-06T15:56:22.682Z,59.13
2022-12-06T15:59:08.861Z,59.03
2022-12-06T16:01:54.903Z,59.09
2022-12-06T16:04:41.735Z,59.02
2022-12-06T16:07:27.577Z,58.90
2022-12-06T16:10:17.817Z,59.33
2022-12-06T16:13:24.888Z,59.04
2022-12-06T16:16:12.013Z,58.93
2022-12-06T16:18:59.014Z,59.02
2022-12-06T16:21:55.250Z,58.93
2022-12-06T16:24:42.776Z,58.91
2022-12-06T16:27:30.892Z,59.05
2022-12-06T16:30:18.523Z,58.96
2022-12-06T16:33:07.665Z,59.17
2022-12-06T16:35:59.505Z,58.89
2022-12-06T16:38:46.116Z,59.14
2022-12-06T16:41:34.102Z,59.03
2022-12-06T16:44:20.438Z,58.80
2022-12-06T16:47:07.819Z,58.81
2022-12-06T16:49:53.821Z,58.91
2022-12-06T16:52:39.751Z,58.85
2022-12-06T16:55:25.665Z,58.69
2022-12-06T16:58:11.714Z,58.74
2022-12-06T17:01:00.029Z,58.77
2022-12-06T17:03:49.511Z,58.97
2022-12-06T17:06:35.805Z,58.70
2022-12-06T17:09:21.764Z,58.87
2022-12-06T17:12:13.145Z,58.94
2022-12-06T17:15:00.198Z,58.80
2022-12-06T17:17:47.161Z,58.84
2022-12-06T17:20:33.285Z,58.74
2022-12-06T17:23:19.387Z,58.70
2022-12-06T17:26:05.639Z,58.53
2022-12-06T17:28:51.955Z,58.80
2022-12-06T17:31:38.787Z,58.84
2022-12-06T17:34:25.969Z,59.04
2022-12-06T17:37:12.203Z,58.71
2022-12-06T17:39:58.453Z,58.33
2022-12-06T17:42:59.361Z,58.51
2022-12-06T17:45:45.481Z,58.60
2022-12-06T17:48:35.979Z,58.81
2022-12-06T17:51:24.808Z,58.57
2022-12-06T17:54:11.359Z,58.93
2022-12-06T17:56:57.309Z,58.75
2022-12-06T17:59:48.541Z,58.54
2022-12-06T18:02:34.601Z,58.33
2022-12-06T18:05:20.538Z,58.55
2022-12-06T18:08:06.451Z,58.51
2022-12-06T18:10:59.504Z,58.54
2022-12-06T18:13:46.137Z,58.58
2022-12-06T18:16:39.266Z,58.47
2022-12-06T18:19:25.429Z,58.49
2022-12-06T18:22:11.520Z,58.50
2022-12-06T18:24:57.781Z,58.18
2022-12-06T18:27:44.201Z,58.05
2022-12-06T18:30:30.333Z,58.40
2022-12-06T18:33:20.720Z,58.18
2022-12-06T18:36:08.874Z,58.29
2022-12-06T18:39:02.647Z,58.13
2022-12-06T18:41:49.120Z,58.56
2022-12-06T18:44:35.012Z,58.30
2022-12-06T18:47:25.917Z,58.01
2022-12-06T18:50:12.005Z,58.21
2022-12-06T18:52:58.118Z,58.37
2022-12-06T18:55:44.393Z,58.05
2022-12-06T18:58:31.435Z,57.99
2022-12-06T19:01:18.882Z,57.98
2022-12-06T19:04:06.691Z,58.06
2022-12-06T19:06:53.055Z,58.22
2022-12-06T19:09:39.250Z,58.14
2022-12-06T19:12:25.094Z,58.19
2022-12-06T19:15:11.441Z,58.28
2022-12-06T19:17:57.664Z,57.79
2022-12-06T19:20:43.811Z,58.02
2022-12-06T19:23:32.999Z,57.88
2022-12-06T19:26:19.335Z,57.91
2022-12-06T19:29:05.960Z,57.87
2022-12-06T19:31:52.575Z,58.10
2022-12-06T19:34:38.525Z,58.11
2022-12-06T19:37:25.087Z,58.11
2022-12-06T19:40:11.582Z,58.02
2022-12-06T19:43:24.158Z,57.83
2022-12-06T19:46:12.251Z,57.85
2022-12-06T19:49:00.719Z,58.25
2022-12-06T19:51:47.727Z,57.82
2022-12-06T19:54:37.308Z,57.93
2022-12-06T19:57:23.382Z,57.64
2022-12-06T20:00:10.867Z,57.79
2022-12-06T20:02:58.063Z,58.03
2022-12-06T20:05:44.197Z,58.11
2022-12-06T20:08:30.439Z,57.82
2022-12-06T20:11:38.165Z,57.72
2022-12-06T20:14:24.541Z,57.84
2022-12-06T20:17:14.138Z,57.83
2022-12-06T20:20:02.111Z,58.29
2022-12-06T20:22:48.391Z,58.03
2022-12-06T20:25:37.237Z,57.72
2022-12-06T20:28:23.371Z,58.08
2022-12-06T20:31:24.011Z,58.05
2022-12-06T20:34:14.988Z,58.05
2022-12-06T20:37:03.687Z,58.00
2022-12-06T20:39:49.636Z,57.88
2022-12-06T20:42:35.539Z,57.91
2022-12-06T20:45:21.431Z,57.96
2022-12-06T20:48:07.508Z,57.89
2022-12-06T20:50:53.554Z,58.26
2022-12-06T20:53:40.148Z,58.02
2022-12-06T20:56:28.835Z,57.93
2022-12-06T20:59:14.945Z,57.96
2022-12-06T21:02:01.002Z,58.00
2022-12-06T21:04:47.228Z,58.03
2022-12-06T21:07:33.230Z,58.34
2022-12-06T21:10:19.466Z,58.10
2022-12-06T21:13:06.528Z,58.22
2022-12-06T21:16:07.514Z,58.00
2022-12-06T21:19:05.448Z,58.09
2022-12-06T21:21:58.586Z,58.00
2022-12-06T21:24:44.670Z,58.26
2022-12-06T21:27:30.522Z,57.85
2022-12-06T21:30:16.858Z,58.13
2022-12-06T21:33:05.169Z,57.79
2022-12-06T21:35:53.332Z,57.82
2022-12-06T21:38:39.498Z,58.14
2022-12-06T21:41:25.771Z,58.40
2022-12-06T21:44:12.009Z,57.82
2022-12-06T21:46:58.197Z,57.93
2022-12-06T21:49:44.375Z,58.19
2022-12-06T21:52:30.403Z,58.05
2022-12-06T21:55:16.432Z,58.38
2022-12-06T21:58:02.543Z,58.01
2022-12-06T22:00:48.480Z,58.36
2022-12-06T22:03:34.519Z,58.06
2022-12-06T22:06:21.033Z,58.41
2022-12-06T22:09:06.981Z,57.92
2022-12-06T22:11:52.891Z,58.18
2022-12-06T22:14:38.923Z,58.06
2022-12-06T22:17:25.136Z,57.76
2022-12-06T22:20:11.398Z,58.27
2022-12-06T22:22:57.254Z,58.15
2022-12-06T22:25:43.139Z,58.08
2022-12-06T22:28:29.048Z,58.34
2022-12-06T22:31:19.966Z,58.02
2022-12-06T22:34:06.032Z,58.00
2022-12-06T22:36:51.805Z,58.09
2022-12-06T22:39:37.621Z,58.23
2022-12-06T22:42:23.520Z,58.23
2022-12-06T22:45:09.785Z,58.53
2022-12-06T22:47:55.572Z,57.84
2022-12-06T22:50:41.563Z,58.21
2022-12-06T22:53:27.545Z,58.25
2022-12-06T22:56:14.497Z,57.90
2022-12-06T22:59:01.473Z,58.47
2022-12-06T23:01:47.544Z,58.23
2022-12-06T23:04:33.559Z,58.25
2022-12-06T23:07:19.627Z,58.11
2022-12-06T23:10:06.304Z,58.02
2022-12-06T23:12:52.468Z,58.38
2022-12-06T23:15:38.348Z,58.14
2022-12-06T23:18:24.956Z,58.17
2022-12-06T23:21:16.446Z,57.92
2022-12-06T23:24:05.564Z,57.97
2022-12-06T23:26:57.744Z,58.39
2022-12-06T23:29:44.081Z,57.82
2022-12-06T23:32:30.115Z,58.45
2022-12-06T23:35:16.562Z,58.28
2022-12-06T23:38:02.368Z,58.06
2022-12-06T23:40:48.332Z,58.41
2022-12-06T23:43:35.261Z,58.22
2022-12-06T23:46:23.162Z,58.15
2022-12-06T23:49:16.409Z,58.07
2022-12-06T23:52:02.602Z,57.92
2022-12-06T23:54:48.801Z,58.28
2022-12-06T23:57:34.730Z,58.24
